Time;durP1;ratioP1;P1;durP2;ratioP2;P2;SDS_P1;SDS_P2;PMS_P1;PMS_P2;Temp;Humidity;BMP_temperature;BMP_pressure;BME280_temperature;BME280_humidity;BME280_pressure;Samples;Min_cycle;Max_cycle;Signal;HPM_P1;HPM_P2
2022/01/02 00:01:47;;;;;;;11.77;5.05;;;11.80;99.90;;;;;;5034191;28;20025;-59
2022/01/02 00:04:19;;;;;;;10.70;4.90;;;11.80;99.90;;;;;;5032395;28;20052;-59
2022/01/02 00:06:52;;;;;;;9.00;4.45;;;11.80;99.90;;;;;;5033945;28;20029;-59
2022/01/02 00:09:36;;;;;;;9.32;4.85;;;11.80;99.90;;;;;;5034012;28;20025;-59
2022/01/02 00:12:13;;;;;;;8.02;4.40;;;11.80;99.90;;;;;;5032708;28;20055;-59
2022/01/02 00:14:47;;;;;;;9.15;4.53;;;11.80;99.90;;;;;;5032939;28;20116;-59
2022/01/02 00:17:17;;;;;;;12.55;4.97;;;11.80;99.90;;;;;;5034352;28;20112;-59
2022/01/02 00:19:52;;;;;;;11.48;4.93;;;11.70;99.90;;;;;;5033937;28;20026;-59
2022/01/02 00:22:20;;;;;;;10.68;4.72;;;11.60;99.90;;;;;;5032486;28;20022;-59
2022/01/02 00:24:46;;;;;;;10.88;4.70;;;11.50;99.90;;;;;;5032364;28;20567;-53
2022/01/02 00:27:14;;;;;;;16.05;5.35;;;11.60;99.90;;;;;;5033508;28;20087;-54
2022/01/02 00:29:42;;;;;;;13.95;5.35;;;11.50;99.90;;;;;;5033444;28;20032;-54
2022/01/02 00:32:09;;;;;;;13.23;4.78;;;11.50;99.90;;;;;;5033089;28;20433;-55
2022/01/02 00:34:36;;;;;;;15.50;5.13;;;11.60;99.90;;;;;;5033322;28;20037;-55
2022/01/02 00:37:02;;;;;;;9.27;3.85;;;11.60;99.90;;;;;;5033350;28;20022;-55
2022/01/02 00:39:29;;;;;;;10.15;4.15;;;11.60;99.90;;;;;;5033539;28;20112;-55
2022/01/02 00:41:57;;;;;;;9.82;4.20;;;11.70;99.90;;;;;;5033060;28;20044;-55
2022/01/02 00:44:56;;;;;;;7.22;4.38;;;11.70;99.90;;;;;;5033370;28;20013;-55
2022/01/02 00:47:49;;;;;;;9.65;4.60;;;11.70;99.90;;;;;;5033394;28;20434;-55
2022/01/02 00:50:19;;;;;;;9.13;4.60;;;11.70;99.90;;;;;;5032990;28;20074;-55
2022/01/02 00:52:49;;;;;;;9.93;4.82;;;11.70;99.90;;;;;;5032686;28;20176;-55
2022/01/02 00:55:24;;;;;;;9.07;4.40;;;11.70;99.90;;;;;;5033296;28;20045;-55
2022/01/02 00:57:58;;;;;;;10.27;4.32;;;11.70;99.90;;;;;;5032688;28;20048;-55
2022/01/02 01:00:24;;;;;;;12.70;4.63;;;11.70;99.90;;;;;;5031398;28;20057;-56
2022/01/02 01:02:57;;;;;;;11.10;4.93;;;11.60;99.90;;;;;;5032919;28;20033;-55
2022/01/02 01:05:32;;;;;;;9.35;4.80;;;11.60;99.90;;;;;;5032967;28;20041;-56
2022/01/02 01:08:01;;;;;;;10.00;4.70;;;11.70;99.90;;;;;;5032589;28;20486;-55
2022/01/02 01:10:29;;;;;;;11.85;4.60;;;11.60;99.90;;;;;;5031725;28;20112;-55
2022/01/02 01:12:59;;;;;;;8.90;4.32;;;11.70;99.90;;;;;;5033009;28;20053;-56
2022/01/02 01:15:28;;;;;;;8.57;4.60;;;11.70;99.90;;;;;;5032652;28;20040;-55
2022/01/02 01:17:55;;;;;;;9.48;5.13;;;11.60;99.90;;;;;;5032937;28;20513;-56
2022/01/02 01:20:23;;;;;;;9.70;4.82;;;11.50;99.90;;;;;;5032621;28;20031;-55
2022/01/02 01:22:49;;;;;;;12.93;5.22;;;11.50;99.90;;;;;;5032261;28;20418;-55
2022/01/02 01:25:17;;;;;;;11.63;4.75;;;11.40;99.90;;;;;;5032261;28;20021;-55
2022/01/02 01:27:45;;;;;;;11.98;4.60;;;11.40;99.90;;;;;;5032764;28;20051;-55
2022/01/02 01:30:12;;;;;;;9.95;5.05;;;11.40;99.90;;;;;;5033498;28;20021;-56
2022/01/02 01:32:38;;;;;;;11.57;5.30;;;11.40;99.90;;;;;;5031809;28;20025;-56
2022/01/02 01:35:05;;;;;;;11.43;4.95;;;11.40;99.90;;;;;;5033044;28;20489;-55
2022/01/02 01:37:31;;;;;;;9.55;4.53;;;11.40;99.90;;;;;;5032420;28;20030;-56
2022/01/02 01:39:57;;;;;;;11.00;5.03;;;11.40;99.90;;;;;;5032483;28;20083;-56
2022/01/02 01:42:33;;;;;;;6.82;4.22;;;11.50;99.90;;;;;;5031091;28;20112;-56
2022/01/02 01:47:48;;;;;;;11.73;5.00;;;11.50;99.90;;;;;;5032622;28;20030;-55
2022/01/02 01:50:15;;;;;;;11.75;5.20;;;11.50;99.90;;;;;;5032286;28;20024;-56
2022/01/02 01:52:41;;;;;;;10.25;4.28;;;11.50;99.90;;;;;;5032394;28;20056;-56
2022/01/02 01:55:07;;;;;;;9.80;4.63;;;11.50;99.90;;;;;;5032470;28;20026;-56
2022/01/02 01:57:33;;;;;;;6.90;4.10;;;11.50;99.90;;;;;;5031154;28;20029;-56
2022/01/02 02:00:02;;;;;;;8.45;4.82;;;11.50;99.90;;;;;;5032332;28;20037;-56
2022/01/02 02:02:29;;;;;;;9.45;4.70;;;11.50;99.90;;;;;;5032561;28;20108;-56
2022/01/02 02:04:55;;;;;;;8.25;3.88;;;11.60;99.90;;;;;;5032244;28;20067;-56
2022/01/02 02:07:27;;;;;;;11.60;4.85;;;11.60;99.90;;;;;;5031975;28;20056;-56
2022/01/02 02:12:53;;;;;;;10.48;4.55;;;11.60;99.90;;;;;;5041949;28;20053;-56
2022/01/02 02:15:19;;;;;;;9.05;4.82;;;11.60;99.90;;;;;;5032525;28;20025;-56
2022/01/02 02:17:47;;;;;;;11.65;5.47;;;11.60;99.90;;;;;;5031707;28;20033;-57
2022/01/02 02:20:21;;;;;;;7.03;3.83;;;11.60;99.90;;;;;;5031696;28;20400;-56
2022/01/02 02:22:52;;;;;;;8.43;3.95;;;11.60;99.90;;;;;;5030866;28;20024;-57
2022/01/02 02:25:19;;;;;;;9.13;4.00;;;11.60;99.90;;;;;;5030451;28;20055;-57
2022/01/02 02:28:00;;;;;;;10.20;4.93;;;11.60;99.90;;;;;;5030451;28;20571;-57
2022/01/02 02:30:28;;;;;;;10.30;4.57;;;11.60;99.90;;;;;;5029727;28;20040;-57
2022/01/02 02:32:55;;;;;;;8.77;4.20;;;11.60;99.90;;;;;;5031749;28;20403;-58
2022/01/02 02:35:21;;;;;;;10.18;4.53;;;11.60;99.90;;;;;;5031371;28;20029;-57
2022/01/02 02:37:48;;;;;;;10.18;4.55;;;11.60;99.90;;;;;;5031616;28;20034;-57
2022/01/02 02:40:16;;;;;;;11.65;5.13;;;11.50;99.90;;;;;;5031723;28;20387;-57
2022/01/02 02:54:27;;;;;;;9.30;4.70;;;11.30;99.90;;;;;;5032031;28;20033;-56
2022/01/02 02:56:58;;;;;;;12.02;5.07;;;11.30;99.90;;;;;;5031738;28;20599;-57
2022/01/02 02:59:32;;;;;;;10.18;4.82;;;11.30;99.90;;;;;;5031217;28;20033;-55
2022/01/02 03:01:59;;;;;;;11.25;4.53;;;11.30;99.90;;;;;;5031364;28;20083;-55
2022/01/02 03:04:25;;;;;;;12.45;5.93;;;11.30;99.90;;;;;;5031438;28;20423;-56
2022/01/02 03:06:52;;;;;;;11.20;5.13;;;11.30;99.90;;;;;;5031945;28;20018;-56
2022/01/02 03:09:36;;;;;;;12.93;5.30;;;11.30;99.90;;;;;;5032073;28;20053;-56
2022/01/02 03:12:02;;;;;;;10.65;4.63;;;11.30;99.90;;;;;;5031479;28;20029;-56
2022/01/02 03:14:28;;;;;;;6.43;4.53;;;11.30;99.90;;;;;;5031640;28;20036;-56
2022/01/02 03:16:54;;;;;;;9.88;4.10;;;11.20;99.90;;;;;;5031594;28;20025;-55
2022/01/02 03:19:20;;;;;;;9.10;4.90;;;11.20;99.90;;;;;;5031632;28;20486;-55
2022/01/02 03:21:46;;;;;;;12.60;4.43;;;11.20;99.90;;;;;;5031013;28;20025;-55
2022/01/02 03:24:12;;;;;;;8.32;5.07;;;11.30;99.90;;;;;;5031911;28;20402;-55
2022/01/02 03:26:37;;;;;;;11.50;4.55;;;11.30;99.90;;;;;;5030943;28;20042;-55
2022/01/02 03:29:03;;;;;;;8.23;4.15;;;11.40;99.90;;;;;;5031338;28;20026;-54
2022/01/02 03:31:29;;;;;;;12.13;4.38;;;11.50;99.90;;;;;;5031461;28;20029;-55
2022/01/02 03:33:55;;;;;;;9.25;3.80;;;11.50;99.90;;;;;;5031279;28;20028;-56
2022/01/02 03:36:20;;;;;;;11.95;4.55;;;11.60;99.90;;;;;;5031046;28;20715;-55
2022/01/02 03:38:46;;;;;;;7.30;4.57;;;11.60;99.90;;;;;;5031379;28;20028;-55
2022/01/02 03:41:12;;;;;;;9.73;4.22;;;11.60;99.90;;;;;;5034519;28;20052;-55
2022/01/02 03:43:38;;;;;;;7.82;4.55;;;11.60;99.90;;;;;;5035001;28;20021;-55
2022/01/02 03:46:04;;;;;;;7.57;4.43;;;11.50;99.90;;;;;;5034788;28;20037;-54
2022/01/02 03:48:33;;;;;;;9.10;3.70;;;11.40;99.90;;;;;;5035277;28;20032;-56
2022/01/02 03:50:59;;;;;;;9.88;4.68;;;11.30;99.90;;;;;;5034493;28;20029;-56
2022/01/02 03:53:25;;;;;;;12.55;4.55;;;11.30;99.90;;;;;;5034883;28;20486;-56
2022/01/02 03:55:51;;;;;;;9.13;4.78;;;11.20;99.90;;;;;;5034066;28;20032;-55
2022/01/02 03:58:17;;;;;;;8.48;4.47;;;11.20;99.90;;;;;;5034574;28;20037;-56
2022/01/02 04:00:43;;;;;;;8.43;4.47;;;11.20;99.90;;;;;;5033251;28;20059;-56
2022/01/02 04:03:09;;;;;;;12.02;4.15;;;11.20;99.90;;;;;;5034649;28;20034;-56
2022/01/02 04:05:34;;;;;;;17.95;4.72;;;11.10;99.90;;;;;;5034272;28;20021;-56
2022/01/02 04:08:00;;;;;;;10.65;4.20;;;11.20;99.90;;;;;;5034064;28;20475;-56
2022/01/02 04:10:25;;;;;;;10.18;4.18;;;11.20;99.90;;;;;;5034661;28;20025;-55
2022/01/02 04:12:51;;;;;;;8.18;4.13;;;11.20;99.90;;;;;;5034093;28;20021;-56
2022/01/02 04:15:17;;;;;;;12.73;5.13;;;11.20;99.90;;;;;;5034533;28;20089;-55
2022/01/02 04:17:43;;;;;;;6.57;3.47;;;11.20;99.90;;;;;;5032807;28;20043;-56
2022/01/02 04:20:12;;;;;;;8.57;4.32;;;11.20;99.90;;;;;;5034068;28;20435;-56
2022/01/02 04:22:38;;;;;;;11.38;4.95;;;11.20;99.90;;;;;;5033786;28;20065;-56
2022/01/02 04:25:05;;;;;;;10.63;4.43;;;11.30;99.90;;;;;;5033867;28;20431;-56
2022/01/02 04:27:31;;;;;;;6.72;3.95;;;11.30;99.90;;;;;;5032702;28;20052;-55
2022/01/02 04:29:57;;;;;;;8.00;3.72;;;11.30;99.90;;;;;;5033693;28;20029;-55
2022/01/02 04:32:22;;;;;;;8.00;4.47;;;11.20;99.90;;;;;;5034806;28;20083;-55
2022/01/02 04:34:48;;;;;;;7.90;3.97;;;11.20;99.90;;;;;;5034498;28;20089;-55
2022/01/02 04:37:14;;;;;;;7.70;4.45;;;11.20;99.90;;;;;;5033992;28;20025;-54
2022/01/02 04:39:40;;;;;;;7.95;3.97;;;11.20;99.90;;;;;;5033751;28;20037;-55
2022/01/02 04:42:06;;;;;;;9.00;4.20;;;11.20;99.90;;;;;;5033315;28;20033;-55
2022/01/02 04:44:32;;;;;;;7.32;4.40;;;11.20;99.90;;;;;;5033841;28;20164;-54
2022/01/02 04:46:58;;;;;;;10.05;4.72;;;11.20;99.90;;;;;;5033397;28;20543;-55
2022/01/02 04:49:24;;;;;;;14.18;5.60;;;11.20;99.90;;;;;;5032433;28;20052;-54
2022/01/02 04:51:52;;;;;;;7.15;4.63;;;11.10;99.90;;;;;;5033439;28;20474;-55
2022/01/02 04:54:18;;;;;;;7.47;4.43;;;11.10;99.90;;;;;;5033419;28;20034;-56
2022/01/02 04:56:43;;;;;;;7.18;4.07;;;11.10;99.90;;;;;;5032774;28;20055;-55
2022/01/02 04:59:09;;;;;;;7.55;4.40;;;11.10;99.90;;;;;;5033084;28;20051;-55
2022/01/02 05:01:35;;;;;;;7.60;4.45;;;11.10;99.90;;;;;;5032266;28;20055;-55
2022/01/02 05:04:00;;;;;;;10.50;4.15;;;11.00;99.90;;;;;;5032918;28;20059;-56
2022/01/02 05:06:26;;;;;;;10.68;4.20;;;11.00;99.90;;;;;;5033252;28;20049;-55
2022/01/02 05:08:51;;;;;;;8.85;4.28;;;11.10;99.90;;;;;;5033377;28;20100;-55
2022/01/02 05:11:17;;;;;;;8.88;4.68;;;11.00;99.90;;;;;;5032751;28;20052;-56
2022/01/02 05:13:44;;;;;;;9.50;4.43;;;11.00;99.90;;;;;;5032893;28;20390;-56
2022/01/02 05:16:10;;;;;;;6.45;3.97;;;10.90;99.90;;;;;;5032293;28;20040;-55
2022/01/02 05:18:35;;;;;;;8.80;4.30;;;10.90;99.90;;;;;;5032175;28;20034;-56
2022/01/02 05:21:01;;;;;;;6.05;4.25;;;10.90;99.90;;;;;;5032597;28;20032;-56
2022/01/02 05:23:29;;;;;;;9.40;4.82;;;10.90;99.90;;;;;;5032748;28;20108;-57
2022/01/02 05:25:55;;;;;;;9.88;4.25;;;10.90;99.90;;;;;;5032279;28;20075;-56
2022/01/02 05:28:21;;;;;;;8.02;4.10;;;10.90;99.90;;;;;;5032718;28;20103;-56
2022/01/02 05:30:46;;;;;;;8.93;4.35;;;11.00;99.90;;;;;;5032323;28;20053;-55
2022/01/02 05:33:12;;;;;;;10.38;4.47;;;11.00;99.90;;;;;;5032461;28;20036;-55
2022/01/02 05:35:38;;;;;;;10.65;4.10;;;11.00;99.90;;;;;;5032655;28;20032;-55
2022/01/02 05:38:04;;;;;;;10.40;3.97;;;11.00;99.90;;;;;;5032870;28;20025;-55
2022/01/02 05:40:34;;;;;;;10.48;4.65;;;11.00;99.90;;;;;;5032094;28;20025;-55
2022/01/02 05:43:04;;;;;;;8.73;4.03;;;11.00;99.90;;;;;;5032014;28;20030;-55
2022/01/02 05:45:30;;;;;;;4.40;3.38;;;10.90;99.90;;;;;;5030694;28;20513;-55
2022/01/02 05:47:56;;;;;;;8.95;3.97;;;11.00;99.90;;;;;;5031916;28;20057;-55
2022/01/02 05:50:22;;;;;;;7.18;3.90;;;10.90;99.90;;;;;;5032080;28;20052;-55
2022/01/02 05:52:47;;;;;;;8.50;4.13;;;11.00;99.90;;;;;;5032092;28;20030;-55
2022/01/02 05:55:13;;;;;;;6.28;3.38;;;11.00;99.90;;;;;;5032934;28;20034;-56
2022/01/02 05:57:39;;;;;;;6.68;3.60;;;11.00;99.90;;;;;;5032653;28;20442;-54
2022/01/02 06:00:07;;;;;;;6.07;3.75;;;11.00;99.90;;;;;;5032163;28;20044;-55
2022/01/02 06:02:33;;;;;;;6.38;3.40;;;11.00;99.90;;;;;;5031218;28;20033;-55
2022/01/02 06:04:59;;;;;;;6.10;3.65;;;11.10;99.90;;;;;;5032278;28;20060;-55
2022/01/02 06:07:24;;;;;;;4.57;2.63;;;11.10;99.90;;;;;;5032345;28;20025;-55
2022/01/02 06:09:50;;;;;;;6.40;3.85;;;11.20;99.90;;;;;;5032429;28;20032;-55
2022/01/02 06:12:16;;;;;;;8.70;3.80;;;11.20;99.90;;;;;;5032844;28;20080;-55
2022/01/02 06:14:41;;;;;;;6.55;3.08;;;11.30;99.90;;;;;;5032051;28;20090;-56
2022/01/02 06:17:07;;;;;;;7.80;4.05;;;11.30;99.90;;;;;;5031776;28;20033;-57
2022/01/02 06:19:33;;;;;;;5.75;3.40;;;11.20;99.90;;;;;;5032067;28;20108;-57
2022/01/02 06:22:00;;;;;;;8.43;3.72;;;11.30;99.90;;;;;;5031859;28;20137;-58
2022/01/02 06:24:26;;;;;;;6.93;3.72;;;11.30;99.90;;;;;;5032289;28;20053;-58
2022/01/02 06:26:52;;;;;;;6.55;2.90;;;11.40;99.90;;;;;;5031310;28;20099;-58
2022/01/02 06:29:17;;;;;;;7.15;3.22;;;11.50;99.90;;;;;;5031512;28;20021;-58
2022/01/02 06:31:43;;;;;;;6.97;3.30;;;11.50;99.90;;;;;;5031434;28;20017;-58
2022/01/02 06:34:09;;;;;;;4.45;3.33;;;11.60;99.90;;;;;;5030239;28;20049;-58
2022/01/02 06:36:34;;;;;;;5.57;3.30;;;11.50;99.90;;;;;;5031139;28;20262;-58
2022/01/02 06:39:00;;;;;;;5.93;3.33;;;11.60;99.90;;;;;;5031449;28;20060;-58
2022/01/02 06:41:26;;;;;;;9.68;3.00;;;11.60;99.90;;;;;;5032100;28;20037;-56
2022/01/02 06:43:52;;;;;;;6.38;3.30;;;11.60;99.90;;;;;;5031919;28;20036;-57
2022/01/02 06:46:21;;;;;;;7.90;3.97;;;11.60;99.90;;;;;;5032085;28;20029;-56
2022/01/02 06:48:47;;;;;;;4.15;3.40;;;11.70;99.90;;;;;;5032379;28;20108;-56
2022/01/02 06:51:12;;;;;;;4.30;3.25;;;11.60;99.90;;;;;;5031759;28;20423;-56
2022/01/02 06:53:38;;;;;;;5.38;3.40;;;11.60;99.90;;;;;;5031735;28;20498;-57
2022/01/02 06:56:04;;;;;;;7.30;3.78;;;11.60;99.90;;;;;;5031638;28;20139;-57
2022/01/02 06:58:30;;;;;;;6.97;3.38;;;11.70;99.90;;;;;;5031365;28;20030;-57
2022/01/02 07:00:56;;;;;;;7.43;3.90;;;11.60;99.90;;;;;;5030378;28;20059;-57
2022/01/02 07:03:22;;;;;;;4.65;3.20;;;11.60;99.90;;;;;;5031365;28;20026;-58
2022/01/02 07:05:48;;;;;;;5.57;3.95;;;11.60;99.90;;;;;;5032144;28;20021;-58
2022/01/02 07:08:14;;;;;;;7.43;3.65;;;11.70;99.90;;;;;;5030219;28;20021;-58
2022/01/02 07:10:40;;;;;;;3.97;3.30;;;11.70;99.90;;;;;;5031749;28;20026;-58
2022/01/02 07:13:05;;;;;;;5.90;3.20;;;11.70;99.90;;;;;;5032368;28;20592;-57
2022/01/02 07:15:31;;;;;;;6.18;3.47;;;11.60;99.90;;;;;;5035460;28;20036;-57
2022/01/02 07:17:57;;;;;;;7.90;3.85;;;11.60;99.90;;;;;;5034972;28;20112;-57
2022/01/02 07:20:22;;;;;;;7.30;3.97;;;11.60;99.90;;;;;;5035665;28;20395;-56
2022/01/02 07:22:48;;;;;;;7.50;3.58;;;11.70;99.90;;;;;;5035225;28;20029;-58
2022/01/02 07:25:14;;;;;;;4.75;3.65;;;11.70;99.90;;;;;;5035114;28;20030;-58
2022/01/02 07:27:40;;;;;;;4.35;2.95;;;11.70;99.90;;;;;;5035213;28;20057;-56
2022/01/02 07:30:07;;;;;;;7.68;3.38;;;11.80;99.90;;;;;;5035215;28;20553;-57
2022/01/02 07:32:32;;;;;;;6.40;3.50;;;11.80;99.90;;;;;;5034891;28;20091;-57
2022/01/02 07:34:58;;;;;;;6.15;3.50;;;11.80;99.90;;;;;;5035198;28;20029;-57
2022/01/02 07:37:23;;;;;;;9.55;4.40;;;11.80;99.90;;;;;;5033735;28;20099;-57
2022/01/02 07:39:49;;;;;;;5.93;3.67;;;11.90;99.90;;;;;;5035033;28;20029;-57
2022/01/02 07:42:15;;;;;;;7.68;4.05;;;11.90;99.90;;;;;;5034211;28;20033;-57
2022/01/02 07:44:40;;;;;;;6.75;4.15;;;11.90;99.90;;;;;;5033506;28;20025;-57
2022/01/02 07:47:07;;;;;;;5.93;4.47;;;11.80;99.90;;;;;;5034764;28;20076;-57
2022/01/02 07:49:32;;;;;;;9.20;3.95;;;11.90;99.90;;;;;;5034894;28;20112;-57
2022/01/02 07:51:58;;;;;;;8.43;4.32;;;11.90;99.90;;;;;;5034749;28;20108;-57
2022/01/02 07:54:23;;;;;;;7.93;4.40;;;11.90;99.90;;;;;;5035034;28;20025;-57
2022/01/02 07:56:49;;;;;;;6.00;4.10;;;11.90;99.90;;;;;;5034554;28;20037;-57
2022/01/02 07:59:15;;;;;;;7.47;4.18;;;12.00;99.90;;;;;;5034267;28;20042;-58
2022/01/02 08:01:40;;;;;;;7.20;4.38;;;11.90;99.90;;;;;;5035095;28;20045;-58
2022/01/02 08:04:06;;;;;;;7.25;4.60;;;12.00;99.90;;;;;;5034405;28;20021;-58
2022/01/02 08:06:31;;;;;;;8.73;4.63;;;12.00;99.90;;;;;;5034251;28;20518;-58
2022/01/02 08:08:57;;;;;;;8.35;4.60;;;12.00;99.90;;;;;;5033833;28;20148;-58
2022/01/02 08:11:22;;;;;;;5.95;3.88;;;11.90;99.90;;;;;;5034374;28;20057;-58
2022/01/02 08:13:48;;;;;;;8.68;4.35;;;11.80;99.90;;;;;;5033011;28;20033;-58
2022/01/02 08:16:14;;;;;;;9.60;4.60;;;11.80;99.90;;;;;;5034329;28;20502;-58
2022/01/02 08:18:41;;;;;;;5.03;4.18;;;11.80;99.90;;;;;;5033931;28;20029;-58
2022/01/02 08:21:07;;;;;;;5.43;4.00;;;11.80;99.90;;;;;;5033994;28;20487;-58
2022/01/02 08:23:34;;;;;;;6.20;3.80;;;11.80;99.90;;;;;;5034056;28;20029;-59
2022/01/02 08:26:00;;;;;;;9.57;4.70;;;11.80;99.90;;;;;;5033473;28;20073;-59
2022/01/02 08:28:26;;;;;;;7.80;4.18;;;11.80;99.90;;;;;;5034534;28;20096;-59
2022/01/02 08:30:52;;;;;;;7.25;4.70;;;11.80;99.90;;;;;;5034677;28;20120;-58
2022/01/02 08:33:18;;;;;;;6.07;3.88;;;11.80;99.90;;;;;;5034671;28;20025;-58
2022/01/02 08:35:44;;;;;;;9.25;5.72;;;11.80;99.90;;;;;;5034511;28;20029;-58
2022/01/02 08:38:12;;;;;;;8.73;5.45;;;11.80;99.90;;;;;;5033641;28;20091;-58
2022/01/02 08:40:39;;;;;;;8.57;4.55;;;11.70;99.90;;;;;;5033731;28;20021;-59
2022/01/02 08:43:06;;;;;;;7.43;4.90;;;11.70;99.90;;;;;;5034536;28;20112;-59
2022/01/02 08:45:32;;;;;;;5.93;4.50;;;11.80;99.90;;;;;;5034158;28;20387;-59
2022/01/02 08:47:58;;;;;;;6.97;4.75;;;11.80;99.90;;;;;;5033884;28;20033;-58
2022/01/02 08:50:23;;;;;;;8.25;4.57;;;11.90;99.90;;;;;;5033631;28;20018;-58
2022/01/02 08:52:49;;;;;;;6.88;4.75;;;12.00;99.90;;;;;;5031562;28;20029;-58
2022/01/02 08:55:15;;;;;;;7.18;4.82;;;12.10;99.90;;;;;;5033380;28;20044;-58
2022/01/02 08:57:41;;;;;;;9.85;4.45;;;12.10;99.90;;;;;;5031849;28;20032;-59
2022/01/02 09:00:08;;;;;;;8.63;4.63;;;12.00;99.90;;;;;;5033327;28;20030;-59
2022/01/02 09:02:33;;;;;;;9.02;5.57;;;11.90;99.90;;;;;;5033047;28;20109;-59
2022/01/02 09:04:59;;;;;;;8.52;4.95;;;11.90;99.90;;;;;;5033557;28;20053;-59
2022/01/02 09:07:24;;;;;;;7.78;5.00;;;11.80;99.90;;;;;;5032866;28;20447;-58
2022/01/02 09:09:50;;;;;;;8.98;4.88;;;11.80;99.90;;;;;;5032760;28;20028;-58
2022/01/02 09:12:16;;;;;;;6.13;4.80;;;11.80;99.90;;;;;;5032910;28;20100;-58
2022/01/02 09:14:43;;;;;;;8.73;5.30;;;11.80;99.90;;;;;;5033388;28;20104;-59
2022/01/02 09:17:08;;;;;;;7.25;4.80;;;11.80;99.90;;;;;;5032751;28;20057;-59
2022/01/02 09:19:38;;;;;;;10.63;5.20;;;11.90;99.90;;;;;;5033551;28;20368;-59
2022/01/02 09:22:04;;;;;;;12.70;5.35;;;11.90;99.90;;;;;;5032727;28;20029;-59
2022/01/02 09:24:30;;;;;;;9.52;5.30;;;11.80;99.90;;;;;;5033018;28;20029;-59
2022/01/02 09:26:56;;;;;;;12.10;5.95;;;11.90;99.90;;;;;;5032892;28;20056;-59
2022/01/02 09:29:22;;;;;;;9.30;5.60;;;11.90;99.90;;;;;;5032992;28;20032;-59
2022/01/02 09:31:48;;;;;;;9.15;5.00;;;11.80;99.90;;;;;;5032456;28;20489;-59
2022/01/02 09:34:13;;;;;;;7.07;4.20;;;12.30;99.90;;;;;;5033148;28;20021;-59
2022/01/02 09:36:39;;;;;;;8.40;5.18;;;12.50;99.90;;;;;;5033284;28;20100;-59
2022/01/02 09:39:05;;;;;;;10.52;5.15;;;12.30;99.90;;;;;;5031825;28;20231;-59
2022/01/02 09:41:31;;;;;;;9.27;5.15;;;12.20;99.90;;;;;;5032832;28;20024;-59
2022/01/02 09:43:57;;;;;;;8.40;4.93;;;12.10;99.90;;;;;;5032548;28;20060;-59
2022/01/02 09:46:26;;;;;;;12.10;5.38;;;12.00;99.90;;;;;;5031126;28;20069;-59
2022/01/02 09:48:53;;;;;;;8.40;5.18;;;12.00;99.90;;;;;;5032509;28;20126;-58
2022/01/02 09:51:21;;;;;;;10.02;5.28;;;12.00;99.90;;;;;;5030486;28;20044;-58
2022/01/02 09:53:48;;;;;;;8.23;5.40;;;12.00;99.90;;;;;;5031392;28;20582;-58
2022/01/02 09:56:16;;;;;;;11.85;5.32;;;12.00;99.90;;;;;;5032574;28;20022;-58
2022/01/02 09:58:44;;;;;;;7.82;4.88;;;12.00;99.90;;;;;;5032864;28;20422;-59
2022/01/02 10:01:17;;;;;;;9.60;5.50;;;12.10;99.90;;;;;;5032404;28;20099;-58
2022/01/02 10:03:46;;;;;;;8.57;4.55;;;12.10;99.90;;;;;;5032106;28;20079;-58
2022/01/02 10:06:13;;;;;;;7.40;4.80;;;12.10;99.90;;;;;;5031623;28;20036;-58
2022/01/02 10:08:39;;;;;;;6.53;4.13;;;12.10;99.90;;;;;;5031463;28;20548;-59
2022/01/02 10:11:17;;;;;;;8.57;4.82;;;12.30;99.90;;;;;;5033083;28;20025;-58
2022/01/02 10:13:45;;;;;;;9.55;5.13;;;12.30;99.90;;;;;;5030830;28;20029;-58
2022/01/02 10:16:38;;;;;;;12.40;5.30;;;12.40;99.90;;;;;;5032131;28;20057;-58
2022/01/02 10:19:32;;;;;;;6.88;4.97;;;12.60;99.90;;;;;;5031059;28;20053;-59
2022/01/02 10:22:07;;;;;;;11.52;5.43;;;12.50;99.90;;;;;;5031753;28;20557;-59
2022/01/02 10:24:36;;;;;;;12.15;5.55;;;12.50;99.90;;;;;;5031974;28;20106;-59
2022/01/02 10:27:03;;;;;;;9.65;5.47;;;12.80;99.90;;;;;;5032044;28;20041;-59
2022/01/02 10:29:41;;;;;;;8.52;5.20;;;13.30;99.90;;;;;;5032469;28;20029;-59
2022/01/02 10:32:36;;;;;;;6.60;4.97;;;13.70;99.90;;;;;;5030918;28;20025;-59
2022/01/02 10:35:21;;;;;;;8.95;4.78;;;13.80;99.90;;;;;;5031337;28;20080;-59
2022/01/02 10:37:52;;;;;;;9.25;4.97;;;13.50;99.90;;;;;;5031822;28;20051;-59
2022/01/02 10:40:24;;;;;;;12.80;4.57;;;13.20;99.90;;;;;;5029902;28;20036;-59
2022/01/02 10:42:49;;;;;;;8.88;5.32;;;13.10;99.90;;;;;;5030868;28;20025;-59
2022/01/02 10:45:38;;;;;;;11.30;4.60;;;13.40;99.90;;;;;;5029928;28;20038;-59
2022/01/02 10:48:07;;;;;;;9.50;4.70;;;13.90;99.90;;;;;;5032592;28;20071;-59
2022/01/02 10:50:33;;;;;;;13.00;4.45;;;13.50;99.90;;;;;;5037490;28;20537;-59
2022/01/02 10:53:14;;;;;;;10.57;4.60;;;13.60;99.90;;;;;;5037943;28;20156;-59
2022/01/02 10:55:44;;;;;;;7.38;3.90;;;13.60;99.90;;;;;;5036678;28;20128;-59
2022/01/02 10:58:10;;;;;;;8.50;4.20;;;13.90;99.90;;;;;;5037778;28;20522;-59
2022/01/02 11:00:37;;;;;;;8.18;4.10;;;14.20;99.90;;;;;;5036722;28;20486;-59
2022/01/02 11:03:05;;;;;;;8.00;3.88;;;14.40;99.90;;;;;;5037801;28;20123;-59
2022/01/02 11:05:31;;;;;;;7.38;3.50;;;14.40;99.90;;;;;;5037602;28;20052;-59
2022/01/02 11:07:59;;;;;;;8.77;3.75;;;14.20;99.90;;;;;;5037561;28;20064;-59
2022/01/02 11:10:27;;;;;;;8.85;4.00;;;14.00;99.90;;;;;;5037787;28;20026;-58
2022/01/02 11:12:54;;;;;;;11.20;4.70;;;13.90;99.90;;;;;;5037774;28;20029;-58
2022/01/02 11:15:23;;;;;;;9.35;4.10;;;14.00;99.90;;;;;;5036563;28;20025;-59
2022/01/02 11:17:49;;;;;;;9.68;4.72;;;13.90;99.90;;;;;;5037952;28;20083;-59
2022/01/02 11:20:18;;;;;;;8.93;3.78;;;13.70;99.90;;;;;;5037915;28;20029;-59
2022/01/02 11:22:54;;;;;;;7.35;4.40;;;13.60;99.90;;;;;;5037686;28;20430;-59
2022/01/02 11:25:41;;;;;;;9.88;4.32;;;13.40;99.90;;;;;;5036019;28;20079;-59
2022/01/02 11:28:25;;;;;;;12.63;4.28;;;13.40;99.90;;;;;;5037815;28;20474;-59
2022/01/02 11:30:53;;;;;;;13.85;4.60;;;13.30;99.90;;;;;;5036914;28;20032;-59
2022/01/02 11:33:28;;;;;;;11.25;4.22;;;13.20;99.90;;;;;;5020436;28;20433;-59
2022/01/02 11:35:56;;;;;;;8.35;4.05;;;13.20;99.90;;;;;;5037350;28;20053;-58
2022/01/02 11:38:25;;;;;;;12.38;4.70;;;13.20;99.90;;;;;;5036071;28;20056;-58
2022/01/02 11:40:54;;;;;;;11.10;4.05;;;13.20;99.90;;;;;;5035619;28;20041;-58
2022/01/02 11:43:35;;;;;;;6.47;3.45;;;13.30;99.90;;;;;;5037428;28;20026;-59
2022/01/02 11:46:17;;;;;;;7.85;3.80;;;13.80;99.90;;;;;;5037299;28;20368;-59
2022/01/02 11:49:03;;;;;;;7.00;3.83;;;14.00;99.90;;;;;;5037405;28;20382;-59
2022/01/02 11:51:47;;;;;;;9.98;4.20;;;14.60;99.90;;;;;;5037677;28;20033;-59
2022/01/02 11:54:28;;;;;;;11.77;3.88;;;14.60;99.90;;;;;;5037802;28;20021;-59
2022/01/02 11:56:54;;;;;;;9.60;3.22;;;14.40;99.90;;;;;;5037637;28;20495;-59
2022/01/02 11:59:38;;;;;;;6.70;3.30;;;14.00;99.90;;;;;;5036787;28;20097;-59
2022/01/02 12:02:23;;;;;;;7.07;3.67;;;13.70;99.90;;;;;;5034170;28;20029;-59
2022/01/02 12:07:41;;;;;;;8.27;3.42;;;14.00;99.90;;;;;;5034067;28;20072;-59
2022/01/02 12:10:27;;;;;;;5.20;3.08;;;14.50;99.90;;;;;;5033916;28;20045;-59
2022/01/02 12:13:16;;;;;;;8.10;2.83;;;14.60;99.90;;;;;;5034046;28;20534;-59
2022/01/02 12:15:42;;;;;;;7.93;3.22;;;14.30;99.90;;;;;;5033919;28;20502;-59
2022/01/02 12:18:15;;;;;;;7.32;3.50;;;14.30;99.90;;;;;;5033745;28;20036;-59
2022/01/02 12:20:49;;;;;;;;;;;14.20;99.90;;;;;;5033924;28;20029;-59
2022/01/02 12:23:40;;;;;;;9.55;3.50;;;14.10;99.90;;;;;;5033924;28;19935;-59
2022/01/02 12:26:20;;;;;;;8.45;3.47;;;14.00;99.90;;;;;;5034363;28;20139;-59
2022/01/02 12:28:58;;;;;;;11.63;3.50;;;13.90;99.90;;;;;;5034039;28;20033;-59
2022/01/02 12:31:35;;;;;;;8.77;2.75;;;14.00;99.90;;;;;;5034109;28;20028;-59
2022/01/02 12:34:19;;;;;;;7.30;2.88;;;14.10;99.90;;;;;;5034019;28;20037;-59
2022/01/02 12:36:50;;;;;;;5.85;2.50;;;14.10;99.90;;;;;;5033962;28;20029;-59
2022/01/02 12:39:23;;;;;;;11.65;2.92;;;14.60;99.90;;;;;;5033796;28;20490;-59
2022/01/02 12:41:50;;;;;;;7.78;2.97;;;15.00;99.90;;;;;;5032433;28;20052;-59
2022/01/02 12:44:24;;;;;;;8.45;2.80;;;15.10;99.90;;;;;;5034071;28;20018;-59
2022/01/02 12:46:53;;;;;;;8.50;2.85;;;15.30;99.90;;;;;;5034062;28;20099;-59
2022/01/02 12:49:34;;;;;;;7.18;2.67;;;15.50;99.90;;;;;;5033724;28;20435;-60
2022/01/02 12:52:03;;;;;;;6.45;2.28;;;15.50;99.90;;;;;;5033573;28;20029;-60
2022/01/02 12:54:31;;;;;;;6.40;1.88;;;15.40;99.90;;;;;;5033679;28;20025;-60
2022/01/02 12:57:02;;;;;;;6.22;2.58;;;15.60;99.90;;;;;;5033785;28;20490;-60
2022/01/02 12:59:38;;;;;;;4.38;2.30;;;15.80;99.90;;;;;;5033389;28;20032;-59
2022/01/02 13:02:13;;;;;;;8.10;2.10;;;15.70;99.90;;;;;;5033400;28;20540;-59
2022/01/02 13:04:38;;;;;;;6.70;2.08;;;15.70;99.90;;;;;;5033504;28;20486;-59
2022/01/02 13:07:12;;;;;;;6.30;2.70;;;15.50;99.90;;;;;;5033452;28;20030;-59
2022/01/02 13:09:43;;;;;;;6.25;1.92;;;14.70;99.90;;;;;;5032972;28;20029;-59
2022/01/02 13:12:28;;;;;;;6.93;2.13;;;14.30;99.90;;;;;;5032016;28;20372;-59
2022/01/02 13:15:05;;;;;;;8.50;2.38;;;13.90;99.90;;;;;;5033171;28;20075;-59